Time;durP1;ratioP1;P1;durP2;ratioP2;P2;SDS_P1;SDS_P2;PMS_P1;PMS_P2;Temp;Humidity;BMP_temperature;BMP_pressure;BME280_temperature;BME280_humidity;BME280_pressure;Samples;Min_cycle;Max_cycle;Signal;HPM_P1;HPM_P2
2022/10/12 00:01:12;;;;;;;12.57;5.07;;;;;;;;;;4861133;29;20186;-80
2022/10/12 00:03:38;;;;;;;11.17;4.90;;;;;;;;;;4866901;29;20185;-80
2022/10/12 00:06:12;;;;;;;11.30;4.53;;;;;;;;;;4875720;29;20201;-80
2022/10/12 00:08:39;;;;;;;9.87;4.50;;;;;;;;;;4862862;29;20218;-80
2022/10/12 00:11:06;;;;;;;11.17;4.80;;;;;;;;;;4860322;29;20191;-80
2022/10/12 00:13:32;;;;;;;12.40;4.93;;;;;;;;;;4861619;29;20190;-80
2022/10/12 00:16:02;;;;;;;9.93;4.67;;;;;;;;;;4874212;29;20190;-80
2022/10/12 00:18:30;;;;;;;12.47;4.77;;;;;;;;;;4866227;29;20199;-89
2022/10/12 00:21:02;;;;;;;10.63;4.30;;;;;;;;;;4874093;29;20322;-89
2022/10/12 00:23:29;;;;;;;15.00;4.27;;;;;;;;;;4875159;29;20198;-80
2022/10/12 00:25:55;;;;;;;12.67;4.90;;;;;;;;;;4875840;29;20191;-80
2022/10/12 00:28:21;;;;;;;13.63;5.27;;;;;;;;;;4869384;29;20267;-81
2022/10/12 00:30:47;;;;;;;11.50;4.77;;;;;;;;;;4878648;29;20205;-80
2022/10/12 00:33:13;;;;;;;11.30;4.80;;;;;;;;;;4862130;29;20188;-81
2022/10/12 00:35:39;;;;;;;8.37;4.57;;;;;;;;;;4875897;29;20219;-81
2022/10/12 00:38:05;;;;;;;8.50;3.87;;;;;;;;;;4862208;29;20219;-89
2022/10/12 00:40:31;;;;;;;14.23;4.43;;;;;;;;;;4883320;29;20192;-88
2022/10/12 00:42:57;;;;;;;10.33;4.17;;;;;;;;;;4865191;29;20194;-89
2022/10/12 00:45:24;;;;;;;14.43;4.77;;;;;;;;;;4881003;29;20202;-80
2022/10/12 00:47:51;;;;;;;9.90;4.27;;;;;;;;;;4877399;29;20222;-80
2022/10/12 00:50:20;;;;;;;9.53;4.17;;;;;;;;;;4865478;29;20186;-79
2022/10/12 00:52:51;;;;;;;9.33;3.87;;;;;;;;;;4869399;29;20202;-79
2022/10/12 00:55:19;;;;;;;9.47;4.10;;;;;;;;;;4864796;29;20186;-79
2022/10/12 00:57:47;;;;;;;10.20;4.20;;;;;;;;;;4863081;29;20231;-79
2022/10/12 01:00:13;;;;;;;12.40;4.10;;;;;;;;;;4867715;29;20189;-79
2022/10/12 01:02:40;;;;;;;13.27;4.07;;;;;;;;;;4875102;29;20223;-80
2022/10/12 01:05:07;;;;;;;10.17;3.77;;;;;;;;;;4865275;29;20211;-81
2022/10/12 01:07:33;;;;;;;9.97;3.80;;;;;;;;;;4878891;29;20224;-80
2022/10/12 01:09:59;;;;;;;11.20;3.73;;;;;;;;;;4872794;29;20183;-81
2022/10/12 01:12:26;;;;;;;8.30;3.30;;;;;;;;;;4866915;29;20199;-80
2022/10/12 01:14:52;;;;;;;12.77;3.93;;;;;;;;;;4874627;29;20216;-80
2022/10/12 01:17:18;;;;;;;7.57;3.30;;;;;;;;;;4865056;29;20187;-80
2022/10/12 01:20:02;;;;;;;10.23;3.60;;;;;;;;;;4881106;29;20342;-80
2022/10/12 01:22:31;;;;;;;14.50;3.70;;;;;;;;;;4880474;29;20253;-80
2022/10/12 01:25:08;;;;;;;11.33;3.47;;;;;;;;;;4870426;29;20198;-80
2022/10/12 01:27:46;;;;;;;11.00;3.23;;;;;;;;;;4864022;29;20305;-80
2022/10/12 01:30:20;;;;;;;13.07;3.73;;;;;;;;;;4867165;29;20201;-77
2022/10/12 01:32:54;;;;;;;9.80;3.60;;;;;;;;;;4862343;29;20194;-76
2022/10/12 01:35:24;;;;;;;12.03;3.70;;;;;;;;;;4881078;29;20197;-77
2022/10/12 01:38:00;;;;;;;8.97;3.10;;;;;;;;;;4875559;29;20187;-79
2022/10/12 01:40:32;;;;;;;10.73;3.60;;;;;;;;;;4862113;29;20186;-79
2022/10/12 01:42:58;;;;;;;10.63;3.77;;;;;;;;;;4862743;29;20235;-77
2022/10/12 01:45:24;;;;;;;11.47;3.77;;;;;;;;;;4863090;29;20238;-80
2022/10/12 01:47:52;;;;;;;12.43;4.03;;;;;;;;;;4870619;29;20248;-80
2022/10/12 01:50:20;;;;;;;11.37;3.33;;;;;;;;;;4930560;23;20236;-77
2022/10/12 01:53:04;;;;;;;8.13;3.13;;;;;;;;;;4888505;29;20182;-77
2022/10/12 01:55:30;;;;;;;11.60;3.80;;;;;;;;;;4885485;29;20197;-76
2022/10/12 01:58:01;;;;;;;12.00;4.00;;;;;;;;;;4879852;29;20197;-77
2022/10/12 02:00:27;;;;;;;8.03;3.80;;;;;;;;;;4880928;29;20194;-76
2022/10/12 02:02:53;;;;;;;11.47;4.27;;;;;;;;;;4877700;29;20198;-76
2022/10/12 02:05:38;;;;;;;13.87;4.70;;;;;;;;;;4885705;29;20190;-77
2022/10/12 02:08:19;;;;;;;11.77;3.80;;;;;;;;;;4882167;29;20285;-77
2022/10/12 02:10:52;;;;;;;11.27;4.47;;;;;;;;;;4886257;29;20207;-76
2022/10/12 02:13:19;;;;;;;10.80;4.23;;;;;;;;;;4888059;29;20186;-76
2022/10/12 02:15:47;;;;;;;9.33;4.20;;;;;;;;;;4890592;29;20186;-88
2022/10/12 02:18:16;;;;;;;11.87;5.00;;;;;;;;;;4879935;29;20218;-89
2022/10/12 02:20:43;;;;;;;14.90;5.90;;;;;;;;;;4888347;29;20196;-89
2022/10/12 02:23:10;;;;;;;22.23;11.00;;;;;;;;;;4885328;29;20206;-89
2022/10/12 02:25:36;;;;;;;21.33;11.47;;;;;;;;;;4888703;29;20197;-88
2022/10/12 02:28:06;;;;;;;15.10;8.93;;;;;;;;;;4900555;29;20218;-88
2022/10/12 02:30:36;;;;;;;21.33;11.20;;;;;;;;;;4885209;29;20442;-88
2022/10/12 02:33:07;;;;;;;22.93;9.13;;;;;;;;;;4889527;29;20192;-88
2022/10/12 02:35:36;;;;;;;17.40;7.57;;;;;;;;;;4887518;29;20182;-88
2022/10/12 02:38:07;;;;;;;14.67;5.97;;;;;;;;;;4886807;29;20193;-88
2022/10/12 02:40:38;;;;;;;13.87;5.37;;;;;;;;;;4884227;29;20198;-80
2022/10/12 02:43:11;;;;;;;11.03;4.80;;;;;;;;;;4886351;29;20192;-80
2022/10/12 02:45:41;;;;;;;12.83;4.70;;;;;;;;;;4888860;29;20190;-80
2022/10/12 02:48:08;;;;;;;12.00;4.27;;;;;;;;;;4889175;29;20208;-80
2022/10/12 02:50:35;;;;;;;11.53;4.53;;;;;;;;;;4888662;29;20297;-80
2022/10/12 02:53:02;;;;;;;13.37;4.77;;;;;;;;;;4887560;29;20196;-80
2022/10/12 02:55:29;;;;;;;13.70;4.83;;;;;;;;;;4889397;29;20182;-80
2022/10/12 02:57:55;;;;;;;12.70;5.27;;;;;;;;;;4885709;29;20197;-80
2022/10/12 03:00:21;;;;;;;14.13;4.63;;;;;;;;;;4896159;29;20193;-81
2022/10/12 03:02:47;;;;;;;11.67;4.20;;;;;;;;;;4889757;29;20231;-88
2022/10/12 03:05:13;;;;;;;11.63;5.00;;;;;;;;;;4882122;29;20194;-89
2022/10/12 03:07:39;;;;;;;9.93;3.87;;;;;;;;;;4897705;29;20303;-88
2022/10/12 03:10:06;;;;;;;8.90;3.77;;;;;;;;;;4896516;29;20220;-88
2022/10/12 03:12:32;;;;;;;11.60;4.50;;;;;;;;;;4887346;29;20297;-88
2022/10/12 03:14:58;;;;;;;8.90;4.47;;;;;;;;;;4866501;29;20216;-89
2022/10/12 03:17:24;;;;;;;8.63;4.10;;;;;;;;;;4879751;29;20198;-76
2022/10/12 03:19:49;;;;;;;10.47;3.63;;;;;;;;;;4881144;29;20225;-77
2022/10/12 03:22:16;;;;;;;10.20;4.20;;;;;;;;;;4871962;29;20189;-80
2022/10/12 03:24:42;;;;;;;10.67;3.97;;;;;;;;;;4885865;29;20193;-80
2022/10/12 03:27:08;;;;;;;8.27;3.70;;;;;;;;;;4885610;29;20220;-80
2022/10/12 03:29:34;;;;;;;11.40;3.83;;;;;;;;;;4886696;29;20190;-80
2022/10/12 03:32:00;;;;;;;13.80;4.47;;;;;;;;;;4876438;29;20209;-80
2022/10/12 03:34:25;;;;;;;10.50;4.20;;;;;;;;;;4886562;29;20221;-79
2022/10/12 03:36:51;;;;;;;9.80;3.70;;;;;;;;;;4884976;29;20198;-79
2022/10/12 03:39:20;;;;;;;9.37;4.07;;;;;;;;;;4885153;29;20189;-87
2022/10/12 03:41:46;;;;;;;12.03;3.80;;;;;;;;;;4876025;29;20185;-88
2022/10/12 03:44:12;;;;;;;11.27;3.30;;;;;;;;;;4875365;29;20345;-88
2022/10/12 03:46:39;;;;;;;7.07;3.10;;;;;;;;;;4873979;29;20281;-80
2022/10/12 03:49:05;;;;;;;8.67;3.20;;;;;;;;;;4887564;29;20215;-80
2022/10/12 03:51:31;;;;;;;9.27;3.53;;;;;;;;;;4873809;29;20233;-80
2022/10/12 03:53:57;;;;;;;9.80;3.47;;;;;;;;;;4875893;29;20189;-89
2022/10/12 03:56:23;;;;;;;11.23;3.70;;;;;;;;;;4873687;29;20276;-89
2022/10/12 03:58:49;;;;;;;5.20;3.50;;;;;;;;;;4872254;29;20285;-88
2022/10/12 04:01:15;;;;;;;11.60;3.90;;;;;;;;;;4873282;29;20253;-88
2022/10/12 04:03:41;;;;;;;6.83;3.50;;;;;;;;;;4871866;29;20189;-89
2022/10/12 04:06:07;;;;;;;6.33;3.33;;;;;;;;;;4874882;29;20205;-88
2022/10/12 04:08:33;;;;;;;8.10;3.20;;;;;;;;;;4881774;29;20200;-80
2022/10/12 04:10:59;;;;;;;7.23;3.40;;;;;;;;;;4887264;29;20224;-80
2022/10/12 04:13:25;;;;;;;8.07;3.67;;;;;;;;;;4887389;29;20218;-81
2022/10/12 04:15:51;;;;;;;7.77;3.47;;;;;;;;;;4887001;29;20276;-80
2022/10/12 04:18:17;;;;;;;9.65;4.30;;;;;;;;;;4887696;29;20466;-80
2022/10/12 04:20:46;;;;;;;10.00;3.87;;;;;;;;;;4887987;29;20186;-82
2022/10/12 04:23:12;;;;;;;9.43;3.83;;;;;;;;;;4894367;29;20185;-81
2022/10/12 04:25:39;;;;;;;11.53;3.90;;;;;;;;;;4882465;29;20216;-79
2022/10/12 04:28:05;;;;;;;9.27;4.53;;;;;;;;;;4878406;29;20245;-78
2022/10/12 04:30:31;;;;;;;10.32;4.90;;;;;;;;;;4885738;29;20460;-78
2022/10/12 04:32:58;;;;;;;13.33;5.00;;;;;;;;;;4893872;29;20290;-78
2022/10/12 04:35:24;;;;;;;14.47;4.53;;;;;;;;;;4866610;29;20185;-79
2022/10/12 04:37:50;;;;;;;14.33;4.73;;;;;;;;;;4881603;29;20190;-78
2022/10/12 04:40:16;;;;;;;15.07;5.28;;;;;;;;;;4890710;29;20456;-78
2022/10/12 04:42:42;;;;;;;11.10;4.30;;;;;;;;;;4893870;29;20196;-78
2022/10/12 04:45:08;;;;;;;9.33;4.30;;;;;;;;;;4896783;29;20318;-79
2022/10/12 04:47:34;;;;;;;9.97;3.97;;;;;;;;;;4881066;29;20218;-79
2022/10/12 04:50:00;;;;;;;9.10;3.87;;;;;;;;;;4897185;29;20225;-79
2022/10/12 04:52:26;;;;;;;10.27;4.50;;;;;;;;;;4890187;29;20190;-78
2022/10/12 04:54:52;;;;;;;8.53;4.30;;;;;;;;;;4885690;29;20193;-78
2022/10/12 04:57:18;;;;;;;13.00;4.53;;;;;;;;;;4882713;29;20189;-78
2022/10/12 04:59:44;;;;;;;9.30;3.90;;;;;;;;;;4886975;29;20186;-78
2022/10/12 05:02:10;;;;;;;12.13;4.63;;;;;;;;;;4896430;29;20280;-88
2022/10/12 05:04:36;;;;;;;10.57;4.77;;;;;;;;;;4887439;29;20198;-88
2022/10/12 05:07:02;;;;;;;10.87;4.90;;;;;;;;;;4888216;29;20247;-87
2022/10/12 05:09:28;;;;;;;8.83;4.40;;;;;;;;;;4900425;29;20209;-80
2022/10/12 05:11:54;;;;;;;13.23;5.80;;;;;;;;;;4878593;29;20438;-79
2022/10/12 05:14:20;;;;;;;11.47;5.03;;;;;;;;;;4881427;29;20274;-79
2022/10/12 05:16:46;;;;;;;11.70;5.07;;;;;;;;;;4881175;29;20217;-79
2022/10/12 05:19:12;;;;;;;8.57;4.53;;;;;;;;;;4866847;29;20194;-75
2022/10/12 05:21:39;;;;;;;12.17;5.50;;;;;;;;;;4900316;29;20186;-88
2022/10/12 05:24:05;;;;;;;14.98;6.10;;;;;;;;;;4884389;29;20445;-78
2022/10/12 05:26:32;;;;;;;11.70;5.57;;;;;;;;;;4898564;29;20227;-78
2022/10/12 05:28:57;;;;;;;10.63;4.97;;;;;;;;;;4899960;29;20189;-79
2022/10/12 05:31:23;;;;;;;11.63;5.10;;;;;;;;;;4899756;29;20182;-79
2022/10/12 05:33:49;;;;;;;14.70;5.53;;;;;;;;;;4899985;29;20233;-75
2022/10/12 05:36:16;;;;;;;13.13;5.43;;;;;;;;;;4899594;29;20185;-78
2022/10/12 05:38:42;;;;;;;10.57;4.97;;;;;;;;;;4900101;29;20181;-78
2022/10/12 05:41:07;;;;;;;9.23;5.43;;;;;;;;;;4884329;29;20192;-78
2022/10/12 05:43:34;;;;;;;10.77;5.30;;;;;;;;;;4884672;29;20182;-79
2022/10/12 05:46:00;;;;;;;8.17;5.37;;;;;;;;;;4899889;29;20185;-75
2022/10/12 05:48:26;;;;;;;10.27;5.40;;;;;;;;;;4899571;29;20304;-76
2022/10/12 05:50:53;;;;;;;11.07;5.63;;;;;;;;;;4884413;29;20252;-88
2022/10/12 05:53:19;;;;;;;10.30;5.43;;;;;;;;;;4900836;29;20177;-87
2022/10/12 05:55:52;;;;;;;12.03;5.40;;;;;;;;;;4899820;29;20185;-88
2022/10/12 05:58:18;;;;;;;11.03;5.50;;;;;;;;;;4884169;29;20084;-88
2022/10/12 06:00:44;;;;;;;14.47;5.60;;;;;;;;;;4900616;29;20485;-88
2022/10/12 06:03:10;;;;;;;13.13;5.43;;;;;;;;;;4883997;29;20189;-88
2022/10/12 06:05:36;;;;;;;13.27;6.50;;;;;;;;;;4899439;29;20205;-76
2022/10/12 06:08:02;;;;;;;10.47;5.60;;;;;;;;;;4884049;29;20217;-88
2022/10/12 06:10:28;;;;;;;13.87;6.33;;;;;;;;;;4899481;29;20186;-88
2022/10/12 06:12:54;;;;;;;9.73;5.80;;;;;;;;;;4899372;29;20181;-88
2022/10/12 06:15:20;;;;;;;11.83;6.40;;;;;;;;;;4883851;29;20189;-88
2022/10/12 06:17:46;;;;;;;13.10;6.47;;;;;;;;;;4883588;29;20214;-76
2022/10/12 06:20:12;;;;;;;12.93;7.13;;;;;;;;;;4880755;29;20431;-88
2022/10/12 06:22:38;;;;;;;13.17;7.40;;;;;;;;;;4880313;29;20432;-88
2022/10/12 06:25:05;;;;;;;15.57;8.20;;;;;;;;;;4880965;29;20489;-87
2022/10/12 06:27:31;;;;;;;13.98;7.80;;;;;;;;;;4886005;29;20450;-85
2022/10/12 06:29:57;;;;;;;14.05;8.10;;;;;;;;;;4881975;29;20428;-88
2022/10/12 06:32:23;;;;;;;15.20;8.60;;;;;;;;;;4887640;29;20466;-87
2022/10/12 06:34:49;;;;;;;13.77;7.85;;;;;;;;;;4881200;29;20513;-79
2022/10/12 06:37:15;;;;;;;14.18;8.40;;;;;;;;;;4894559;29;20429;-79
2022/10/12 06:39:41;;;;;;;13.02;7.68;;;;;;;;;;4895451;29;20427;-79
2022/10/12 06:42:07;;;;;;;14.48;8.80;;;;;;;;;;4880984;29;20422;-80
2022/10/12 06:44:34;;;;;;;15.75;9.52;;;;;;;;;;4885923;29;20424;-80
2022/10/12 06:46:59;;;;;;;15.10;9.80;;;;;;;;;;4889307;29;20230;-87
2022/10/12 06:49:25;;;;;;;16.33;9.73;;;;;;;;;;4865271;29;20194;-87
2022/10/12 06:51:51;;;;;;;13.23;9.67;;;;;;;;;;4880420;29;20189;-88
2022/10/12 06:54:18;;;;;;;15.70;9.80;;;;;;;;;;4865736;29;20214;-80
2022/10/12 06:56:44;;;;;;;13.43;9.47;;;;;;;;;;4881338;29;20272;-79
2022/10/12 06:59:11;;;;;;;16.83;9.87;;;;;;;;;;4880081;29;20189;-80
2022/10/12 07:01:38;;;;;;;14.40;10.50;;;;;;;;;;4880061;29;20245;-80
2022/10/12 07:04:04;;;;;;;21.35;13.43;;;;;;;;;;4880215;29;20422;-79
2022/10/12 07:06:30;;;;;;;18.75;12.90;;;;;;;;;;4865989;29;20520;-79
2022/10/12 07:08:56;;;;;;;20.58;13.68;;;;;;;;;;4880205;29;20428;-79
2022/10/12 07:11:22;;;;;;;18.95;13.25;;;;;;;;;;4863520;29;20449;-79
2022/10/12 07:13:48;;;;;;;19.58;12.88;;;;;;;;;;4882481;29;20412;-88
2022/10/12 07:16:15;;;;;;;22.60;14.18;;;;;;;;;;4899236;29;20440;-87
2022/10/12 07:18:41;;;;;;;20.20;13.77;;;;;;;;;;4899193;29;20404;-87
2022/10/12 07:21:07;;;;;;;18.27;12.48;;;;;;;;;;4883367;29;20417;-88
2022/10/12 07:23:33;;;;;;;21.37;12.83;;;;;;;;;;4898420;29;20413;-88
2022/10/12 07:26:00;;;;;;;17.73;12.90;;;;;;;;;;4898047;29;20428;-79
2022/10/12 07:28:26;;;;;;;20.20;13.52;;;;;;;;;;4898367;29;20473;-79
2022/10/12 07:30:52;;;;;;;20.95;13.35;;;;;;;;;;4897902;29;20412;-89
2022/10/12 07:33:18;;;;;;;18.80;12.52;;;;;;;;;;4884283;29;20448;-89
2022/10/12 07:35:53;;;;;;;18.42;12.05;;;;;;;;;;4884758;29;20437;-88
2022/10/12 07:38:19;;;;;;;17.80;12.27;;;;;;;;;;4900281;29;20425;-88
2022/10/12 07:40:45;;;;;;;17.37;10.47;;;;;;;;;;4898794;29;20185;-89
2022/10/12 07:43:11;;;;;;;11.53;9.60;;;;;;;;;;4884208;29;20192;-89
2022/10/12 07:45:37;;;;;;;15.50;9.80;;;;;;;;;;4899468;29;20181;-89
2022/10/12 07:48:03;;;;;;;14.03;9.70;;;;;;;;;;4894563;29;20296;-78
2022/10/12 07:50:29;;;;;;;14.53;8.83;;;;;;;;;;4870994;24;20250;-80
2022/10/12 07:52:55;;;;;;;19.43;10.20;;;;;;;;;;4874038;29;20214;-80
2022/10/12 07:55:21;;;;;;;12.53;9.57;;;;;;;;;;4870148;29;20179;-88
2022/10/12 07:57:47;;;;;;;16.40;10.07;;;;;;;;;;4867391;29;20186;-89
2022/10/12 08:00:13;;;;;;;16.10;10.20;;;;;;;;;;4878156;29;20423;-78
2022/10/12 08:02:39;;;;;;;18.05;11.50;;;;;;;;;;4869030;29;20495;-77
2022/10/12 08:05:06;;;;;;;21.58;11.60;;;;;;;;;;4865017;29;20420;-78
2022/10/12 08:07:32;;;;;;;10.30;6.32;;;;;;;;;;4848427;29;20446;-77
2022/10/12 08:09:58;;;;;;;15.73;10.50;;;;;;;;;;4881225;29;20428;-78
2022/10/12 08:12:24;;;;;;;23.43;11.27;;;;;;;;;;4876684;29;20183;-77
2022/10/12 08:14:50;;;;;;;17.47;11.23;;;;;;;;;;4857723;29;20178;-77
2022/10/12 08:17:16;;;;;;;16.35;11.38;;;;;;;;;;4869277;29;20435;-88
2022/10/12 08:19:42;;;;;;;18.13;11.98;;;;;;;;;;4848112;29;20423;-88
2022/10/12 08:22:10;;;;;;;12.63;10.10;;;;;;;;;;4849219;29;20191;-76
2022/10/12 08:24:36;;;;;;;15.53;9.70;;;;;;;;;;4864041;29;20205;-76
2022/10/12 08:27:02;;;;;;;19.60;9.57;;;;;;;;;;4865046;29;20206;-88
2022/10/12 08:29:28;;;;;;;15.93;8.97;;;;;;;;;;4865157;29;20261;-88
2022/10/12 08:31:54;;;;;;;14.87;9.13;;;;;;;;;;4881215;29;20269;-88
2022/10/12 08:34:21;;;;;;;15.80;8.70;;;;;;;;;;4883590;29;20183;-88
2022/10/12 08:36:47;;;;;;;16.20;9.03;;;;;;;;;;4867313;29;20201;-88
2022/10/12 08:39:13;;;;;;;14.03;8.77;;;;;;;;;;4864234;29;20196;-81
2022/10/12 08:41:39;;;;;;;17.37;8.47;;;;;;;;;;4864245;29;20194;-81
2022/10/12 08:44:05;;;;;;;14.53;8.70;;;;;;;;;;4863986;29;20255;-80
2022/10/12 08:46:31;;;;;;;18.60;8.90;;;;;;;;;;4864779;29;20262;-81
2022/10/12 08:48:59;;;;;;;16.47;8.50;;;;;;;;;;4848928;29;20187;-80
2022/10/12 08:51:26;;;;;;;16.87;9.03;;;;;;;;;;4877445;29;20193;-77
2022/10/12 08:53:52;;;;;;;13.47;8.77;;;;;;;;;;4883222;29;20205;-79
2022/10/12 08:56:19;;;;;;;14.20;9.33;;;;;;;;;;4885174;29;20173;-80
2022/10/12 08:58:46;;;;;;;17.50;9.07;;;;;;;;;;4892835;29;20205;-80
2022/10/12 09:01:12;;;;;;;16.35;9.68;;;;;;;;;;4877881;29;20420;-80
2022/10/12 09:03:53;;;;;;;14.77;9.18;;;;;;;;;;4884340;29;20422;-88
2022/10/12 09:06:20;;;;;;;18.73;10.43;;;;;;;;;;4882484;29;20426;-87
2022/10/12 09:09:13;;;;;;;19.00;10.27;;;;;;;;;;4868489;29;20410;-88
2022/10/12 09:11:42;;;;;;;13.07;9.03;;;;;;;;;;4866685;29;20175;-77
2022/10/12 09:14:10;;;;;;;18.02;9.30;;;;;;;;;;4869590;29;20507;-77
2022/10/12 09:16:40;;;;;;;17.98;8.73;;;;;;;;;;4884405;29;20413;-77
2022/10/12 09:19:09;;;;;;;15.47;8.43;;;;;;;;;;4884418;29;20182;-77
2022/10/12 09:21:36;;;;;;;17.10;9.00;;;;;;;;;;4886359;29;20411;-77
2022/10/12 09:24:03;;;;;;;13.98;8.35;;;;;;;;;;4884185;29;20421;-77
2022/10/12 09:26:34;;;;;;;14.27;8.47;;;;;;;;;;4878053;29;20185;-77
2022/10/12 09:29:01;;;;;;;19.07;9.23;;;;;;;;;;4865979;29;20178;-81
2022/10/12 09:31:30;;;;;;;12.47;8.60;;;;;;;;;;4866380;29;20190;-81
2022/10/12 09:33:58;;;;;;;14.67;8.80;;;;;;;;;;4875936;29;20192;-81
2022/10/12 09:36:26;;;;;;;14.40;8.80;;;;;;;;;;4885036;29;20201;-82
2022/10/12 09:38:52;;;;;;;15.27;9.03;;;;;;;;;;4885741;29;20268;-82
2022/10/12 09:41:21;;;;;;;16.33;8.97;;;;;;;;;;4884737;29;20403;-82
2022/10/12 09:43:55;;;;;;;17.57;8.90;;;;;;;;;;4880525;29;20174;-82
2022/10/12 09:46:25;;;;;;;17.23;8.70;;;;;;;;;;4883856;29;20194;-82
2022/10/12 09:49:00;;;;;;;19.00;8.80;;;;;;;;;;4884252;29;20185;-82
2022/10/12 09:51:28;;;;;;;13.50;9.23;;;;;;;;;;4884225;29;20934;-81
2022/10/12 09:53:54;;;;;;;13.33;7.97;;;;;;;;;;4869116;29;20190;-82
2022/10/12 09:56:46;;;;;;;14.83;8.53;;;;;;;;;;4869017;29;20217;-82
2022/10/12 09:59:31;;;;;;;13.73;8.30;;;;;;;;;;4881118;29;20193;-82
2022/10/12 10:01:58;;;;;;;14.83;8.63;;;;;;;;;;4884776;29;20229;-90
2022/10/12 10:04:25;;;;;;;13.33;8.37;;;;;;;;;;4894225;29;20177;-89
2022/10/12 10:06:52;;;;;;;16.03;8.27;;;;;;;;;;4884373;29;20205;-89
2022/10/12 10:09:31;;;;;;;16.70;8.80;;;;;;;;;;4893786;29;20182;-89
2022/10/12 10:12:10;;;;;;;15.73;8.43;;;;;;;;;;4872484;29;20197;-89
2022/10/12 10:14:36;;;;;;;15.40;8.77;;;;;;;;;;4873888;29;20189;-89
2022/10/12 10:17:02;;;;;;;14.87;9.20;;;;;;;;;;4855501;29;20217;-89
2022/10/12 10:19:29;;;;;;;16.90;9.60;;;;;;;;;;4894369;29;20193;-81
2022/10/12 10:21:55;;;;;;;15.40;9.50;;;;;;;;;;4856498;29;20188;-81
2022/10/12 10:24:24;;;;;;;14.10;8.83;;;;;;;;;;4869767;29;20185;-81
2022/10/12 10:27:02;;;;;;;16.77;9.27;;;;;;;;;;4869883;29;20217;-81
2022/10/12 10:29:28;;;;;;;16.00;9.03;;;;;;;;;;4886409;29;20225;-81
2022/10/12 10:32:10;;;;;;;15.83;9.53;;;;;;;;;;4886479;29;20178;-80
2022/10/12 10:34:37;;;;;;;18.77;10.53;;;;;;;;;;4885707;29;20197;-79
2022/10/12 10:37:04;;;;;;;16.43;10.70;;;;;;;;;;4865235;29;20190;-78
2022/10/12 10:39:56;;;;;;;16.67;11.00;;;;;;;;;;4864730;29;20190;-78
2022/10/12 10:42:27;;;;;;;18.47;11.40;;;;;;;;;;4862678;29;20194;-78
2022/10/12 10:44:57;;;;;;;18.05;12.40;;;;;;;;;;4880877;29;20422;-77
2022/10/12 10:47:23;;;;;;;20.43;12.50;;;;;;;;;;4863764;29;20433;-77
2022/10/12 10:49:51;;;;;;;18.25;12.60;;;;;;;;;;4860714;29;20455;-77
2022/10/12 10:52:22;;;;;;;19.35;12.95;;;;;;;;;;4863613;29;20179;-89
2022/10/12 10:54:48;;;;;;;22.10;12.93;;;;;;;;;;4867297;29;20215;-89
2022/10/12 10:57:17;;;;;;;22.85;12.32;;;;;;;;;;4870583;29;20183;-89
2022/10/12 11:00:07;;;;;;;20.58;13.63;;;;;;;;;;4865874;29;20467;-89
2022/10/12 11:02:51;;;;;;;21.92;15.00;;;;;;;;;;4863140;29;20429;-88
2022/10/12 11:05:20;;;;;;;21.27;14.35;;;;;;;;;;4866412;29;20415;-89
2022/10/12 11:07:50;;;;;;;18.35;13.32;;;;;;;;;;4870345;29;20217;-80
2022/10/12 11:10:22;;;;;;;20.40;13.63;;;;;;;;;;4868074;29;20472;-80
2022/10/12 11:12:50;;;;;;;20.87;13.47;;;;;;;;;;4867413;29;20193;-80
2022/10/12 11:15:20;;;;;;;20.90;13.45;;;;;;;;;;4869772;29;20458;-80
2022/10/12 11:17:48;;;;;;;18.20;13.60;;;;;;;;;;4869096;29;20446;-81
2022/10/12 11:20:14;;;;;;;20.88;13.30;;;;;;;;;;4862253;29;20434;-81
2022/10/12 11:23:01;;;;;;;19.47;12.60;;;;;;;;;;4872831;29;20424;-81
2022/10/12 11:25:33;;;;;;;19.17;12.20;;;;;;;;;;4872295;29;20521;-88
2022/10/12 11:27:59;;;;;;;19.25;12.10;;;;;;;;;;4864621;29;20442;-88
2022/10/12 11:30:26;;;;;;;18.10;11.80;;;;;;;;;;4864919;29;20413;-87
2022/10/12 11:33:24;;;;;;;19.40;13.13;;;;;;;;;;4863896;29;20411;-89
2022/10/12 11:35:52;;;;;;;18.48;13.43;;;;;;;;;;4830272;29;20431;-78
2022/10/12 11:38:18;;;;;;;20.53;12.97;;;;;;;;;;4877365;29;20454;-77
2022/10/12 11:40:56;;;;;;;18.83;13.35;;;;;;;;;;4871473;29;20464;-79
2022/10/12 11:43:23;;;;;;;21.52;13.57;;;;;;;;;;4865600;29;20435;-81
2022/10/12 11:45:52;;;;;;;18.73;13.30;;;;;;;;;;4866794;29;20491;-81
2022/10/12 11:48:41;;;;;;;20.23;12.93;;;;;;;;;;4865032;29;20437;-80
2022/10/12 11:51:07;;;;;;;16.80;12.20;;;;;;;;;;4869186;29;20447;-80
2022/10/12 11:53:39;;;;;;;19.17;11.20;;;;;;;;;;4868459;29;20415;-80
2022/10/12 11:56:05;;;;;;;18.70;11.15;;;;;;;;;;4875293;29;20421;-80
2022/10/12 11:58:34;;;;;;;17.50;12.50;;;;;;;;;;4876988;29;20454;-78
2022/10/12 12:01:05;;;;;;;21.70;12.53;;;;;;;;;;4869827;29;20420;-78
2022/10/12 12:03:43;;;;;;;16.23;10.48;;;;;;;;;;4863550;29;20434;-78
2022/10/12 12:06:28;;;;;;;16.77;11.23;;;;;;;;;;4874942;29;20410;-78
2022/10/12 12:08:54;;;;;;;17.08;10.65;;;;;;;;;;4866906;29;20426;-77
2022/10/12 12:11:28;;;;;;;19.95;11.40;;;;;;;;;;4867528;29;20424;-78
2022/10/12 12:14:12;;;;;;;16.25;11.32;;;;;;;;;;4871105;29;20420;-80
2022/10/12 12:16:42;;;;;;;21.73;12.20;;;;;;;;;;4865453;29;20406;-80
2022/10/12 12:19:10;;;;;;;16.27;11.48;;;;;;;;;;4860378;29;20419;-79
2022/10/12 12:21:55;;;;;;;20.50;11.48;;;;;;;;;;4870026;29;20464;-80
2022/10/12 12:24:22;;;;;;;18.90;9.83;;;;;;;;;;4864451;29;20411;-80
2022/10/12 12:26:48;;;;;;;18.98;9.93;;;;;;;;;;4871712;29;20531;-80
2022/10/12 12:29:24;;;;;;;18.25;11.00;;;;;;;;;;4854333;29;20430;-80
2022/10/12 12:31:55;;;;;;;18.20;11.57;;;;;;;;;;4863402;29;20416;-81
2022/10/12 12:34:22;;;;;;;20.77;12.75;;;;;;;;;;4874720;29;20416;-82
2022/10/12 12:36:50;;;;;;;18.00;12.40;;;;;;;;;;4869343;29;20429;-81
2022/10/12 12:39:33;;;;;;;19.73;13.02;;;;;;;;;;4872517;29;20435;-82
2022/10/12 12:42:00;;;;;;;17.38;11.70;;;;;;;;;;4879228;29;20421;-81
2022/10/12 12:44:43;;;;;;;18.88;12.00;;;;;;;;;;4867090;29;20414;-81
2022/10/12 12:47:09;;;;;;;19.58;11.75;;;;;;;;;;4872199;29;20448;-82
2022/10/12 12:49:42;;;;;;;20.00;11.98;;;;;;;;;;4867392;29;20442;-89
2022/10/12 12:52:17;;;;;;;19.83;11.70;;;;;;;;;;4866175;29;20438;-90
2022/10/12 12:54:50;;;;;;;18.20;12.15;;;;;;;;;;4866556;29;20410;-90
2022/10/12 12:57:31;;;;;;;19.80;12.50;;;;;;;;;;4882538;29;20421;-90
2022/10/12 13:00:07;;;;;;;19.23;11.65;;;;;;;;;;4878547;29;20418;-89
2022/10/12 13:02:52;;;;;;;18.02;11.20;;;;;;;;;;4867371;29;20426;-90
2022/10/12 13:05:18;;;;;;;17.98;10.95;;;;;;;;;;4884553;29;20417;-77
2022/10/12 13:07:53;;;;;;;17.08;10.10;;;;;;;;;;4870477;29;20441;-77
2022/10/12 13:10:25;;;;;;;18.55;11.30;;;;;;;;;;4884740;29;20416;-77
2022/10/12 13:12:57;;;;;;;20.52;12.05;;;;;;;;;;4876640;29;20432;-77
2022/10/12 13:15:39;;;;;;;16.63;9.77;;;;;;;;;;4876289;29;20467;-78
2022/10/12 13:18:15;;;;;;;18.17;8.77;;;;;;;;;;4880350;29;20507;-77
2022/10/12 13:20:42;;;;;;;17.75;8.10;;;;;;;;;;4870651;29;20444;-80
2022/10/12 13:23:12;;;;;;;18.10;7.68;;;;;;;;;;4875294;29;20425;-80
2022/10/12 13:25:46;;;;;;;15.87;7.30;;;;;;;;;;4895155;29;20480;-80
2022/10/12 13:28:32;;;;;;;14.70;6.65;;;;;;;;;;4866153;29;20470;-80
2022/10/12 13:30:58;;;;;;;13.20;6.57;;;;;;;;;;4874473;29;20433;-80
2022/10/12 13:33:30;;;;;;;11.00;5.88;;;;;;;;;;4882069;29;20414;-80
2022/10/12 13:36:20;;;;;;;13.95;6.10;;;;;;;;;;4882543;29;20422;-80
2022/10/12 13:38:46;;;;;;;12.80;6.22;;;;;;;;;;4862284;29;20446;-90
2022/10/12 13:41:14;;;;;;;13.70;6.55;;;;;;;;;;4865793;29;20462;-90
2022/10/12 13:43:58;;;;;;;13.35;6.72;;;;;;;;;;4865873;29;20422;-90
2022/10/12 13:46:39;;;;;;;14.27;6.72;;;;;;;;;;4885829;29;20413;-80
2022/10/12 13:49:25;;;;;;;15.10;6.93;;;;;;;;;;4883491;23;20427;-82
2022/10/12 13:51:53;;;;;;;15.05;7.18;;;;;;;;;;4900601;29;20424;-82
2022/10/12 13:54:23;;;;;;;14.13;7.25;;;;;;;;;;4868051;29;20412;-77
2022/10/12 13:56:51;;;;;;;14.20;7.30;;;;;;;;;;4876179;29;20501;-78
2022/10/12 13:59:19;;;;;;;14.38;7.78;;;;;;;;;;4875038;29;20416;-80
2022/10/12 14:01:53;;;;;;;14.60;8.07;;;;;;;;;;4869292;29;20492;-80
2022/10/12 14:04:19;;;;;;;15.02;8.48;;;;;;;;;;4879805;29;20506;-82
2022/10/12 14:06:55;;;;;;;14.35;8.32;;;;;;;;;;4871158;29;20436;-82
2022/10/12 14:09:22;;;;;;;14.60;7.82;;;;;;;;;;4872243;29;20426;-82
2022/10/12 14:12:02;;;;;;;15.77;8.70;;;;;;;;;;5115822;27;20530;-88
2022/10/12 14:14:33;;;;;;;16.98;9.25;;;;;;;;;;5101173;28;20408;-89
2022/10/12 14:16:59;;;;;;;17.80;9.10;;;;;;;;;;5110805;28;20388;-89
2022/10/12 14:19:31;;;;;;;16.95;9.55;;;;;;;;;;5094241;28;20441;-82
2022/10/12 14:21:58;;;;;;;15.13;9.70;;;;;;;;;;5110106;28;20427;-81
2022/10/12 14:24:24;;;;;;;17.15;9.50;;;;;;;;;;5093285;28;21251;-81
2022/10/12 14:27:13;;;;;;;19.00;10.02;;;;;;;;;;5109808;28;20479;-82
2022/10/12 14:29:44;;;;;;;20.55;9.70;;;;;;;;;;5112323;28;20404;-88
2022/10/12 14:32:10;;;;;;;18.27;9.83;;;;;;;;;;5111996;28;20403;-86
2022/10/12 14:34:38;;;;;;;17.77;9.70;;;;;;;;;;5114442;28;20464;-87
2022/10/12 14:37:25;;;;;;;16.00;9.45;;;;;;;;;;5112375;28;20460;-89
2022/10/12 14:39:58;;;;;;;19.05;10.13;;;;;;;;;;5113613;28;20483;-88